sensor_id;sensor_type;location;lat;lon;timestamp;temperature;humidity
34434;DHT22;34290;48.562;13.384;2023-03-01T00:02:06;-0.60;99.90
34434;DHT22;34290;48.562;13.384;2023-03-01T00:04:33;-0.70;99.90
34434;DHT22;34290;48.562;13.384;2023-03-01T00:07:01;-0.70;99.90
34434;DHT22;34290;48.562;13.384;2023-03-01T00:09:30;-0.90;99.90
34434;DHT22;34290;48.562;13.384;2023-03-01T00:11:57;-0.90;99.90
34434;DHT22;34290;48.562;13.384;2023-03-01T00:14:24;-1.00;99.90
34434;DHT22;34290;48.562;13.384;2023-03-01T00:16:51;-1.20;99.90
34434;DHT22;34290;48.562;13.384;2023-03-01T00:19:19;-1.30;99.90
34434;DHT22;34290;48.562;13.384;2023-03-01T00:21:47;-1.40;99.90
34434;DHT22;34290;48.562;13.384;2023-03-01T00:24:15;-1.50;99.90
34434;DHT22;34290;48.562;13.384;2023-03-01T00:26:43;-1.50;99.90
34434;DHT22;34290;48.562;13.384;2023-03-01T00:31:37;-1.60;99.90
34434;DHT22;34290;48.562;13.384;2023-03-01T00:34:05;-1.60;99.90
34434;DHT22;34290;48.562;13.384;2023-03-01T00:36:34;-1.70;99.90
34434;DHT22;34290;48.562;13.384;2023-03-01T00:39:03;-1.70;99.90
34434;DHT22;34290;48.562;13.384;2023-03-01T00:41:30;-1.90;99.90
34434;DHT22;34290;48.562;13.384;2023-03-01T00:44:00;-1.90;99.90
34434;DHT22;34290;48.562;13.384;2023-03-01T00:46:28;-2.00;99.90
34434;DHT22;34290;48.562;13.384;2023-03-01T00:48:56;-2.00;99.90
34434;DHT22;34290;48.562;13.384;2023-03-01T00:51:24;-2.10;99.90
34434;DHT22;34290;48.562;13.384;2023-03-01T00:53:53;-2.10;99.90
34434;DHT22;34290;48.562;13.384;2023-03-01T00:56:20;-2.10;99.90
34434;DHT22;34290;48.562;13.384;2023-03-01T01:01:18;-2.30;99.90
34434;DHT22;34290;48.562;13.384;2023-03-01T01:03:46;-2.40;99.90
34434;DHT22;34290;48.562;13.384;2023-03-01T01:08:42;-2.40;99.90
34434;DHT22;34290;48.562;13.384;2023-03-01T01:11:09;-2.60;99.90
34434;DHT22;34290;48.562;13.384;2023-03-01T01:13:37;-2.50;99.90
34434;DHT22;34290;48.562;13.384;2023-03-01T01:16:05;-2.70;99.90
34434;DHT22;34290;48.562;13.384;2023-03-01T01:21:06;-2.70;99.90
34434;DHT22;34290;48.562;13.384;2023-03-01T01:23:33;-2.60;99.90
34434;DHT22;34290;48.562;13.384;2023-03-01T01:26:04;-2.70;99.90
34434;DHT22;34290;48.562;13.384;2023-03-01T01:28:31;-2.70;99.90
34434;DHT22;34290;48.562;13.384;2023-03-01T01:33:26;-1.90;99.90
34434;DHT22;34290;48.562;13.384;2023-03-01T01:35:55;-3.10;99.90
34434;DHT22;34290;48.562;13.384;2023-03-01T01:38:22;-2.60;99.90
34434;DHT22;34290;48.562;13.384;2023-03-01T01:40:50;-2.70;99.90
34434;DHT22;34290;48.562;13.384;2023-03-01T01:43:20;-2.70;99.90
34434;DHT22;34290;48.562;13.384;2023-03-01T01:45:49;-2.60;99.90
34434;DHT22;34290;48.562;13.384;2023-03-01T01:48:19;-2.80;99.90
34434;DHT22;34290;48.562;13.384;2023-03-01T01:50:50;-2.70;99.90
34434;DHT22;34290;48.562;13.384;2023-03-01T01:53:21;-2.80;99.90
34434;DHT22;34290;48.562;13.384;2023-03-01T01:55:51;-2.90;99.90
34434;DHT22;34290;48.562;13.384;2023-03-01T01:58:20;-2.90;99.90
34434;DHT22;34290;48.562;13.384;2023-03-01T02:00:48;-3.00;99.90
34434;DHT22;34290;48.562;13.384;2023-03-01T02:03:19;-3.00;99.90
34434;DHT22;34290;48.562;13.384;2023-03-01T02:05:53;-2.90;99.90
34434;DHT22;34290;48.562;13.384;2023-03-01T02:08:27;-3.00;99.90
34434;DHT22;34290;48.562;13.384;2023-03-01T02:10:56;-3.00;99.90
34434;DHT22;34290;48.562;13.384;2023-03-01T02:13:25;-3.10;99.90
34434;DHT22;34290;48.562;13.384;2023-03-01T02:15:52;-3.10;99.90
34434;DHT22;34290;48.562;13.384;2023-03-01T02:18:21;-3.10;99.90
34434;DHT22;34290;48.562;13.384;2023-03-01T02:20:59;-3.20;99.90
34434;DHT22;34290;48.562;13.384;2023-03-01T02:23:30;-3.20;99.90
34434;DHT22;34290;48.562;13.384;2023-03-01T02:26:01;-3.30;99.90
34434;DHT22;34290;48.562;13.384;2023-03-01T02:28:33;-3.30;99.90
34434;DHT22;34290;48.562;13.384;2023-03-01T02:31:02;-3.30;99.90
34434;DHT22;34290;48.562;13.384;2023-03-01T02:33:47;-3.30;99.90
34434;DHT22;34290;48.562;13.384;2023-03-01T02:38:45;-3.40;99.90
34434;DHT22;34290;48.562;13.384;2023-03-01T02:41:15;-3.40;99.90
34434;DHT22;34290;48.562;13.384;2023-03-01T02:43:44;-3.40;99.90
34434;DHT22;34290;48.562;13.384;2023-03-01T02:46:15;-3.40;99.90
34434;DHT22;34290;48.562;13.384;2023-03-01T02:48:45;-3.50;99.90
34434;DHT22;34290;48.562;13.384;2023-03-01T02:51:25;-3.50;99.90
34434;DHT22;34290;48.562;13.384;2023-03-01T02:54:06;-3.40;99.90
34434;DHT22;34290;48.562;13.384;2023-03-01T02:56:35;-3.50;99.90
34434;DHT22;34290;48.562;13.384;2023-03-01T02:59:04;-3.60;99.90
34434;DHT22;34290;48.562;13.384;2023-03-01T03:01:31;-3.60;99.90
34434;DHT22;34290;48.562;13.384;2023-03-01T03:04:04;-3.60;99.90
34434;DHT22;34290;48.562;13.384;2023-03-01T03:06:31;-3.60;99.90
34434;DHT22;34290;48.562;13.384;2023-03-01T03:08:58;-3.60;99.90
34434;DHT22;34290;48.562;13.384;2023-03-01T03:13:53;-3.70;99.90
34434;DHT22;34290;48.562;13.384;2023-03-01T03:16:22;-3.40;99.90
34434;DHT22;34290;48.562;13.384;2023-03-01T03:18:49;-3.70;99.90
34434;DHT22;34290;48.562;13.384;2023-03-01T03:23:43;-3.50;99.90
34434;DHT22;34290;48.562;13.384;2023-03-01T03:26:10;-3.60;99.90
34434;DHT22;34290;48.562;13.384;2023-03-01T03:28:40;-3.70;99.90
34434;DHT22;34290;48.562;13.384;2023-03-01T03:31:08;-3.70;99.90
34434;DHT22;34290;48.562;13.384;2023-03-01T03:33:36;-3.80;99.90
34434;DHT22;34290;48.562;13.384;2023-03-01T03:36:04;-3.80;99.90
34434;DHT22;34290;48.562;13.384;2023-03-01T03:38:31;-3.90;99.90
34434;DHT22;34290;48.562;13.384;2023-03-01T03:41:03;-3.90;99.90
34434;DHT22;34290;48.562;13.384;2023-03-01T03:43:32;-3.90;99.90
34434;DHT22;34290;48.562;13.384;2023-03-01T03:46:00;-4.00;99.90
34434;DHT22;34290;48.562;13.384;2023-03-01T03:48:31;-4.00;99.90
34434;DHT22;34290;48.562;13.384;2023-03-01T03:51:01;-4.00;99.90
34434;DHT22;34290;48.562;13.384;2023-03-01T03:53:31;-4.00;99.90
34434;DHT22;34290;48.562;13.384;2023-03-01T03:55:58;-4.00;99.90
34434;DHT22;34290;48.562;13.384;2023-03-01T03:58:25;-3.90;99.90
34434;DHT22;34290;48.562;13.384;2023-03-01T04:00:54;-4.00;99.90
34434;DHT22;34290;48.562;13.384;2023-03-01T04:03:24;-3.80;99.90
34434;DHT22;34290;48.562;13.384;2023-03-01T04:05:51;-3.90;99.90
34434;DHT22;34290;48.562;13.384;2023-03-01T04:08:20;-4.00;99.90
34434;DHT22;34290;48.562;13.384;2023-03-01T04:10:50;-4.10;99.90
34434;DHT22;34290;48.562;13.384;2023-03-01T04:13:19;-4.10;99.90
34434;DHT22;34290;48.562;13.384;2023-03-01T04:15:47;-4.20;99.90
34434;DHT22;34290;48.562;13.384;2023-03-01T04:18:16;-4.20;99.90
34434;DHT22;34290;48.562;13.384;2023-03-01T04:20:43;-4.10;99.90
34434;DHT22;34290;48.562;13.384;2023-03-01T04:23:12;-4.10;99.90
34434;DHT22;34290;48.562;13.384;2023-03-01T04:25:46;-4.20;99.90
34434;DHT22;34290;48.562;13.384;2023-03-01T04:28:15;-4.20;99.90
34434;DHT22;34290;48.562;13.384;2023-03-01T04:30:42;-4.20;99.90
34434;DHT22;34290;48.562;13.384;2023-03-01T04:33:10;-4.20;99.90
34434;DHT22;34290;48.562;13.384;2023-03-01T04:35:39;-4.20;99.90
34434;DHT22;34290;48.562;13.384;2023-03-01T04:40:33;-4.10;99.90
34434;DHT22;34290;48.562;13.384;2023-03-01T04:43:03;-4.10;99.90
34434;DHT22;34290;48.562;13.384;2023-03-01T04:45:32;-4.30;99.90
34434;DHT22;34290;48.562;13.384;2023-03-01T04:48:00;-4.30;99.90
34434;DHT22;34290;48.562;13.384;2023-03-01T04:50:27;-4.40;99.90
34434;DHT22;34290;48.562;13.384;2023-03-01T04:52:54;-4.30;99.90
34434;DHT22;34290;48.562;13.384;2023-03-01T04:55:24;-4.20;99.90
34434;DHT22;34290;48.562;13.384;2023-03-01T04:57:51;-4.10;99.90
34434;DHT22;34290;48.562;13.384;2023-03-01T05:00:20;-4.10;99.90
34434;DHT22;34290;48.562;13.384;2023-03-01T05:02:49;-4.20;99.90
34434;DHT22;34290;48.562;13.384;2023-03-01T05:05:24;-4.30;99.90
34434;DHT22;34290;48.562;13.384;2023-03-01T05:07:52;-4.40;99.90
34434;DHT22;34290;48.562;13.384;2023-03-01T05:10:19;-4.50;99.90
34434;DHT22;34290;48.562;13.384;2023-03-01T05:12:46;-4.40;99.90
34434;DHT22;34290;48.562;13.384;2023-03-01T05:17:42;-4.50;99.90
34434;DHT22;34290;48.562;13.384;2023-03-01T05:20:10;-4.60;99.90
34434;DHT22;34290;48.562;13.384;2023-03-01T05:25:05;-4.50;99.90
34434;DHT22;34290;48.562;13.384;2023-03-01T05:27:34;-4.60;99.90
34434;DHT22;34290;48.562;13.384;2023-03-01T05:30:00;-4.60;99.90
34434;DHT22;34290;48.562;13.384;2023-03-01T05:32:41;-4.60;99.90
34434;DHT22;34290;48.562;13.384;2023-03-01T05:35:10;-4.60;99.90
34434;DHT22;34290;48.562;13.384;2023-03-01T05:37:41;-4.60;99.90
34434;DHT22;34290;48.562;13.384;2023-03-01T05:40:09;-4.60;99.90
34434;DHT22;34290;48.562;13.384;2023-03-01T05:42:44;-4.70;99.90
34434;DHT22;34290;48.562;13.384;2023-03-01T05:45:13;-4.70;99.90
34434;DHT22;34290;48.562;13.384;2023-03-01T05:50:12;-4.70;99.90
34434;DHT22;34290;48.562;13.384;2023-03-01T05:52:40;-4.60;99.90
34434;DHT22;34290;48.562;13.384;2023-03-01T05:55:07;-4.70;99.90
34434;DHT22;34290;48.562;13.384;2023-03-01T06:00:02;-4.40;99.90
34434;DHT22;34290;48.562;13.384;2023-03-01T06:02:29;-4.60;99.90
34434;DHT22;34290;48.562;13.384;2023-03-01T06:04:56;-4.60;99.90
34434;DHT22;34290;48.562;13.384;2023-03-01T06:07:25;-4.40;99.90
34434;DHT22;34290;48.562;13.384;2023-03-01T06:12:19;-4.20;99.90
34434;DHT22;34290;48.562;13.384;2023-03-01T06:14:46;-3.80;99.90
34434;DHT22;34290;48.562;13.384;2023-03-01T06:17:14;-3.30;99.90
34434;DHT22;34290;48.562;13.384;2023-03-01T06:19:41;-2.80;99.90
34434;DHT22;34290;48.562;13.384;2023-03-01T06:24:36;-1.30;99.90
34434;DHT22;34290;48.562;13.384;2023-03-01T06:27:03;-0.40;99.90
34434;DHT22;34290;48.562;13.384;2023-03-01T06:29:30;0.30;99.90
34434;DHT22;34290;48.562;13.384;2023-03-01T06:31:57;0.80;99.90
34434;DHT22;34290;48.562;13.384;2023-03-01T06:34:24;1.50;99.90
34434;DHT22;34290;48.562;13.384;2023-03-01T06:36:51;1.70;99.90
34434;DHT22;34290;48.562;13.384;2023-03-01T06:41:46;4.10;99.90
34434;DHT22;34290;48.562;13.384;2023-03-01T06:44:13;4.20;99.90
34434;DHT22;34290;48.562;13.384;2023-03-01T06:46:40;6.00;99.90
34434;DHT22;34290;48.562;13.384;2023-03-01T06:49:07;6.10;99.90
34434;DHT22;34290;48.562;13.384;2023-03-01T06:51:35;6.10;99.90
34434;DHT22;34290;48.562;13.384;2023-03-01T06:54:03;7.10;98.90
34434;DHT22;34290;48.562;13.384;2023-03-01T06:56:30;8.50;95.90
34434;DHT22;34290;48.562;13.384;2023-03-01T06:58:59;8.50;95.80
34434;DHT22;34290;48.562;13.384;2023-03-01T07:01:26;9.10;94.90
34434;DHT22;34290;48.562;13.384;2023-03-01T07:03:53;8.90;92.70
34434;DHT22;34290;48.562;13.384;2023-03-01T07:06:21;9.70;93.10
34434;DHT22;34290;48.562;13.384;2023-03-01T07:08:48;9.60;93.30
34434;DHT22;34290;48.562;13.384;2023-03-01T07:11:15;10.20;92.20
34434;DHT22;34290;48.562;13.384;2023-03-01T07:13:42;10.40;91.80
34434;DHT22;34290;48.562;13.384;2023-03-01T07:16:10;10.90;91.40
34434;DHT22;34290;48.562;13.384;2023-03-01T07:18:37;11.50;90.00
34434;DHT22;34290;48.562;13.384;2023-03-01T07:21:05;12.00;88.40
34434;DHT22;34290;48.562;13.384;2023-03-01T07:23:32;12.60;86.20
34434;DHT22;34290;48.562;13.384;2023-03-01T07:28:27;13.80;85.20
34434;DHT22;34290;48.562;13.384;2023-03-01T07:30:54;13.80;86.00
34434;DHT22;34290;48.562;13.384;2023-03-01T07:33:23;14.00;83.10
34434;DHT22;34290;48.562;13.384;2023-03-01T07:35:56;13.30;83.50
34434;DHT22;34290;48.562;13.384;2023-03-01T07:38:24;13.00;81.80
34434;DHT22;34290;48.562;13.384;2023-03-01T07:40:51;12.70;79.70
34434;DHT22;34290;48.562;13.384;2023-03-01T07:43:19;12.50;80.00
34434;DHT22;34290;48.562;13.384;2023-03-01T07:45:46;11.70;79.90
34434;DHT22;34290;48.562;13.384;2023-03-01T07:48:13;9.30;82.50
34434;DHT22;34290;48.562;13.384;2023-03-01T07:50:41;9.70;85.10
34434;DHT22;34290;48.562;13.384;2023-03-01T07:53:09;8.40;84.60
34434;DHT22;34290;48.562;13.384;2023-03-01T07:55:36;6.40;91.20
34434;DHT22;34290;48.562;13.384;2023-03-01T08:00:31;7.40;88.90
34434;DHT22;34290;48.562;13.384;2023-03-01T08:02:59;7.30;88.20
34434;DHT22;34290;48.562;13.384;2023-03-01T08:05:26;8.30;88.00
34434;DHT22;34290;48.562;13.384;2023-03-01T08:07:55;9.30;85.80
34434;DHT22;34290;48.562;13.384;2023-03-01T08:10:22;9.20;84.20
34434;DHT22;34290;48.562;13.384;2023-03-01T08:12:51;9.10;83.30
34434;DHT22;34290;48.562;13.384;2023-03-01T08:17:48;7.50;88.60
34434;DHT22;34290;48.562;13.384;2023-03-01T08:20:16;7.70;86.50
34434;DHT22;34290;48.562;13.384;2023-03-01T08:22:43;8.00;87.40
34434;DHT22;34290;48.562;13.384;2023-03-01T08:25:11;7.80;87.60
34434;DHT22;34290;48.562;13.384;2023-03-01T08:27:38;7.20;87.80
34434;DHT22;34290;48.562;13.384;2023-03-01T08:30:06;7.50;87.00
34434;DHT22;34290;48.562;13.384;2023-03-01T08:32:36;7.70;87.60
34434;DHT22;34290;48.562;13.384;2023-03-01T08:35:04;6.80;87.10
34434;DHT22;34290;48.562;13.384;2023-03-01T08:37:31;6.50;89.30
34434;DHT22;34290;48.562;13.384;2023-03-01T08:39:58;6.00;90.20
34434;DHT22;34290;48.562;13.384;2023-03-01T08:42:27;5.70;90.00
34434;DHT22;34290;48.562;13.384;2023-03-01T08:49:50;6.40;88.50
34434;DHT22;34290;48.562;13.384;2023-03-01T08:52:17;7.00;90.10
34434;DHT22;34290;48.562;13.384;2023-03-01T08:54:44;6.70;87.40
34434;DHT22;34290;48.562;13.384;2023-03-01T08:57:11;6.60;89.30
34434;DHT22;34290;48.562;13.384;2023-03-01T08:59:39;6.80;89.40
34434;DHT22;34290;48.562;13.384;2023-03-01T09:02:14;7.30;87.50
34434;DHT22;34290;48.562;13.384;2023-03-01T09:04:41;7.50;86.20
34434;DHT22;34290;48.562;13.384;2023-03-01T09:07:09;8.60;86.30
34434;DHT22;34290;48.562;13.384;2023-03-01T09:09:37;9.10;83.10
34434;DHT22;34290;48.562;13.384;2023-03-01T09:12:05;9.30;84.10
34434;DHT22;34290;48.562;13.384;2023-03-01T09:14:32;9.30;83.10
34434;DHT22;34290;48.562;13.384;2023-03-01T09:17:01;8.30;84.50
34434;DHT22;34290;48.562;13.384;2023-03-01T09:19:28;8.20;84.80
34434;DHT22;34290;48.562;13.384;2023-03-01T09:24:24;9.20;85.20
34434;DHT22;34290;48.562;13.384;2023-03-01T09:26:53;9.10;85.10
34434;DHT22;34290;48.562;13.384;2023-03-01T09:29:20;8.50;86.10
34434;DHT22;34290;48.562;13.384;2023-03-01T09:31:48;9.30;84.90
34434;DHT22;34290;48.562;13.384;2023-03-01T09:34:16;8.50;87.40
34434;DHT22;34290;48.562;13.384;2023-03-01T09:36:48;9.10;86.60
34434;DHT22;34290;48.562;13.384;2023-03-01T09:39:15;9.50;85.20
34434;DHT22;34290;48.562;13.384;2023-03-01T09:41:46;8.90;85.10
34434;DHT22;34290;48.562;13.384;2023-03-01T09:44:21;9.50;85.30
34434;DHT22;34290;48.562;13.384;2023-03-01T09:46:51;9.30;86.10
34434;DHT22;34290;48.562;13.384;2023-03-01T09:49:23;10.00;83.60
34434;DHT22;34290;48.562;13.384;2023-03-01T09:51:56;10.50;81.20
34434;DHT22;34290;48.562;13.384;2023-03-01T09:54:24;10.50;82.00
34434;DHT22;34290;48.562;13.384;2023-03-01T09:57:03;11.10;82.20
34434;DHT22;34290;48.562;13.384;2023-03-01T10:02:17;13.00;81.30
34434;DHT22;34290;48.562;13.384;2023-03-01T10:04:49;12.10;82.50
34434;DHT22;34290;48.562;13.384;2023-03-01T10:07:22;12.90;81.60
34434;DHT22;34290;48.562;13.384;2023-03-01T10:09:54;13.50;80.30
34434;DHT22;34290;48.562;13.384;2023-03-01T10:12:24;12.60;77.40
34434;DHT22;34290;48.562;13.384;2023-03-01T10:14:58;12.10;78.30
34434;DHT22;34290;48.562;13.384;2023-03-01T10:17:34;11.10;90.80
34434;DHT22;34290;48.562;13.384;2023-03-01T10:20:25;12.90;82.00
34434;DHT22;34290;48.562;13.384;2023-03-01T10:22:53;13.20;77.20
34434;DHT22;34290;48.562;13.384;2023-03-01T10:25:30;13.60;76.70
34434;DHT22;34290;48.562;13.384;2023-03-01T10:28:02;12.80;77.50
34434;DHT22;34290;48.562;13.384;2023-03-01T10:30:35;13.20;77.10
34434;DHT22;34290;48.562;13.384;2023-03-01T10:33:08;12.50;77.50
34434;DHT22;34290;48.562;13.384;2023-03-01T10:35:40;13.20;80.10
34434;DHT22;34290;48.562;13.384;2023-03-01T10:38:09;13.20;79.00
34434;DHT22;34290;48.562;13.384;2023-03-01T10:40:51;14.70;77.60
34434;DHT22;34290;48.562;13.384;2023-03-01T10:43:18;14.00;77.40
34434;DHT22;34290;48.562;13.384;2023-03-01T10:45:46;13.30;77.10
34434;DHT22;34290;48.562;13.384;2023-03-01T10:48:14;13.50;77.70
34434;DHT22;34290;48.562;13.384;2023-03-01T10:50:45;11.40;80.60
34434;DHT22;34290;48.562;13.384;2023-03-01T10:53:27;11.90;81.80
34434;DHT22;34290;48.562;13.384;2023-03-01T10:56:00;11.80;82.10
34434;DHT22;34290;48.562;13.384;2023-03-01T10:58:27;11.20;83.80
34434;DHT22;34290;48.562;13.384;2023-03-01T11:00:55;11.00;82.90
34434;DHT22;34290;48.562;13.384;2023-03-01T11:03:24;11.10;85.70
34434;DHT22;34290;48.562;13.384;2023-03-01T11:05:59;12.10;82.80
34434;DHT22;34290;48.562;13.384;2023-03-01T11:08:38;11.60;82.00
34434;DHT22;34290;48.562;13.384;2023-03-01T11:11:21;10.90;84.50
34434;DHT22;34290;48.562;13.384;2023-03-01T11:13:52;12.00;83.00
34434;DHT22;34290;48.562;13.384;2023-03-01T11:16:25;13.10;81.00
34434;DHT22;34290;48.562;13.384;2023-03-01T11:18:58;13.60;80.90
34434;DHT22;34290;48.562;13.384;2023-03-01T11:21:29;12.50;82.40
34434;DHT22;34290;48.562;13.384;2023-03-01T11:24:00;11.90;83.40
34434;DHT22;34290;48.562;13.384;2023-03-01T11:26:30;10.90;84.90
34434;DHT22;34290;48.562;13.384;2023-03-01T11:29:07;10.90;85.30
34434;DHT22;34290;48.562;13.384;2023-03-01T11:31:39;11.70;84.20
34434;DHT22;34290;48.562;13.384;2023-03-01T11:34:11;12.80;82.20
34434;DHT22;34290;48.562;13.384;2023-03-01T11:36:46;12.00;84.30
34434;DHT22;34290;48.562;13.384;2023-03-01T11:39:21;11.50;84.50
34434;DHT22;34290;48.562;13.384;2023-03-01T11:42:01;12.00;86.70
34434;DHT22;34290;48.562;13.384;2023-03-01T11:44:31;12.10;82.80
34434;DHT22;34290;48.562;13.384;2023-03-01T11:50:09;11.40;85.10
34434;DHT22;34290;48.562;13.384;2023-03-01T11:52:52;11.70;84.80
34434;DHT22;34290;48.562;13.384;2023-03-01T11:55:36;11.80;85.50
34434;DHT22;34290;48.562;13.384;2023-03-01T11:58:26;12.10;84.80
34434;DHT22;34290;48.562;13.384;2023-03-01T12:01:32;12.00;85.40
34434;DHT22;34290;48.562;13.384;2023-03-01T12:04:28;11.70;87.00
34434;DHT22;34290;48.562;13.384;2023-03-01T12:07:01;12.60;85.60
34434;DHT22;34290;48.562;13.384;2023-03-01T12:10:02;12.90;83.50
34434;DHT22;34290;48.562;13.384;2023-03-01T12:12:46;11.80;84.90
34434;DHT22;34290;48.562;13.384;2023-03-01T12:15:39;11.20;87.50
34434;DHT22;34290;48.562;13.384;2023-03-01T12:18:17;11.30;87.40
34434;DHT22;34290;48.562;13.384;2023-03-01T12:20:54;11.20;87.10
34434;DHT22;34290;48.562;13.384;2023-03-01T12:24:02;11.00;87.30
34434;DHT22;34290;48.562;13.384;2023-03-01T12:26:35;11.20;88.70
34434;DHT22;34290;48.562;13.384;2023-03-01T12:29:22;10.70;88.00
34434;DHT22;34290;48.562;13.384;2023-03-01T12:32:23;11.30;89.80
34434;DHT22;34290;48.562;13.384;2023-03-01T12:35:20;11.50;87.00
34434;DHT22;34290;48.562;13.384;2023-03-01T12:37:57;11.60;87.90
34434;DHT22;34290;48.562;13.384;2023-03-01T12:40:37;11.20;88.70
34434;DHT22;34290;48.562;13.384;2023-03-01T12:43:17;10.90;89.20
34434;DHT22;34290;48.562;13.384;2023-03-01T12:48:50;10.60;89.80
34434;DHT22;34290;48.562;13.384;2023-03-01T12:51:24;10.70;88.90
34434;DHT22;34290;48.562;13.384;2023-03-01T12:53:54;10.50;88.90
34434;DHT22;34290;48.562;13.384;2023-03-01T12:56:24;10.10;90.40
34434;DHT22;34290;48.562;13.384;2023-03-01T12:58:59;10.00;90.70
34434;DHT22;34290;48.562;13.384;2023-03-01T13:01:40;9.70;90.50
34434;DHT22;34290;48.562;13.384;2023-03-01T13:04:15;9.40;90.80
34434;DHT22;34290;48.562;13.384;2023-03-01T13:06:53;9.60;91.00
34434;DHT22;34290;48.562;13.384;2023-03-01T13:09:27;9.90;90.60
34434;DHT22;34290;48.562;13.384;2023-03-01T13:11:56;9.80;91.10
34434;DHT22;34290;48.562;13.384;2023-03-01T13:14:46;9.90;91.00
34434;DHT22;34290;48.562;13.384;2023-03-01T13:17:29;10.00;90.60
34434;DHT22;34290;48.562;13.384;2023-03-01T13:19:57;10.00;90.80
34434;DHT22;34290;48.562;13.384;2023-03-01T13:22:27;9.80;90.70
34434;DHT22;34290;48.562;13.384;2023-03-01T13:25:02;9.60;91.20
34434;DHT22;34290;48.562;13.384;2023-03-01T13:27:29;9.60;91.20
34434;DHT22;34290;48.562;13.384;2023-03-01T13:30:00;9.70;91.10
34434;DHT22;34290;48.562;13.384;2023-03-01T13:32:32;9.80;91.40
34434;DHT22;34290;48.562;13.384;2023-03-01T13:34:59;9.80;91.00
34434;DHT22;34290;48.562;13.384;2023-03-01T13:37:35;9.70;91.10
34434;DHT22;34290;48.562;13.384;2023-03-01T13:43:27;9.60;91.80
34434;DHT22;34290;48.562;13.384;2023-03-01T13:45:58;9.60;91.70
34434;DHT22;34290;48.562;13.384;2023-03-01T13:48:28;9.30;91.50
34434;DHT22;34290;48.562;13.384;2023-03-01T13:50:58;9.30;91.90
34434;DHT22;34290;48.562;13.384;2023-03-01T13:53:29;9.20;91.70
34434;DHT22;34290;48.562;13.384;2023-03-01T13:56:00;9.20;92.10
34434;DHT22;34290;48.562;13.384;2023-03-01T13:58:30;9.40;91.80
34434;DHT22;34290;48.562;13.384;2023-03-01T14:01:02;9.60;92.10
34434;DHT22;34290;48.562;13.384;2023-03-01T14:03:30;9.60;92.00
34434;DHT22;34290;48.562;13.384;2023-03-01T14:06:02;9.70;92.00
34434;DHT22;34290;48.562;13.384;2023-03-01T14:08:30;9.60;91.80
34434;DHT22;34290;48.562;13.384;2023-03-01T14:11:21;9.60;91.70
34434;DHT22;34290;48.562;13.384;2023-03-01T14:14:02;9.40;92.00
34434;DHT22;34290;48.562;13.384;2023-03-01T14:16:45;9.40;92.30
34434;DHT22;34290;48.562;13.384;2023-03-01T14:19:17;9.40;92.30
34434;DHT22;34290;48.562;13.384;2023-03-01T14:21:45;9.20;92.30
34434;DHT22;34290;48.562;13.384;2023-03-01T14:24:18;9.20;92.50
34434;DHT22;34290;48.562;13.384;2023-03-01T14:26:45;9.20;92.40
34434;DHT22;34290;48.562;13.384;2023-03-01T14:29:26;9.10;92.60
34434;DHT22;34290;48.562;13.384;2023-03-01T14:31:55;9.10;92.60
34434;DHT22;34290;48.562;13.384;2023-03-01T14:34:24;9.00;92.70
34434;DHT22;34290;48.562;13.384;2023-03-01T14:36:51;9.00;93.30
34434;DHT22;34290;48.562;13.384;2023-03-01T14:39:22;9.00;93.20
34434;DHT22;34290;48.562;13.384;2023-03-01T14:41:51;9.00;92.70
34434;DHT22;34290;48.562;13.384;2023-03-01T14:44:20;9.00;93.10
34434;DHT22;34290;48.562;13.384;2023-03-01T14:46:54;8.90;92.90
34434;DHT22;34290;48.562;13.384;2023-03-01T14:49:25;8.70;93.30
34434;DHT22;34290;48.562;13.384;2023-03-01T14:51:57;8.50;95.20
34434;DHT22;34290;48.562;13.384;2023-03-01T14:56:58;8.40;93.20
34434;DHT22;34290;48.562;13.384;2023-03-01T14:59:25;8.30;93.50
34434;DHT22;34290;48.562;13.384;2023-03-01T15:01:56;8.50;93.50
34434;DHT22;34290;48.562;13.384;2023-03-01T15:04:24;8.70;99.00
34434;DHT22;34290;48.562;13.384;2023-03-01T15:06:53;8.50;93.40
34434;DHT22;34290;48.562;13.384;2023-03-01T15:09:21;8.50;93.30
34434;DHT22;34290;48.562;13.384;2023-03-01T15:11:49;8.70;95.10
34434;DHT22;34290;48.562;13.384;2023-03-01T15:14:38;8.50;94.60
34434;DHT22;34290;48.562;13.384;2023-03-01T15:17:21;8.30;94.80
34434;DHT22;34290;48.562;13.384;2023-03-01T15:19:49;8.50;95.00
34434;DHT22;34290;48.562;13.384;2023-03-01T15:24:47;8.70;94.90
34434;DHT22;34290;48.562;13.384;2023-03-01T15:27:16;8.50;94.80
34434;DHT22;34290;48.562;13.384;2023-03-01T15:29:49;8.40;97.20
34434;DHT22;34290;48.562;13.384;2023-03-01T15:32:29;8.20;94.10
34434;DHT22;34290;48.562;13.384;2023-03-01T15:34:57;8.50;96.10
34434;DHT22;34290;48.562;13.384;2023-03-01T15:37:39;8.30;94.20
34434;DHT22;34290;48.562;13.384;2023-03-01T15:40:19;8.20;94.20
34434;DHT22;34290;48.562;13.384;2023-03-01T15:42:46;8.10;94.20
34434;DHT22;34290;48.562;13.384;2023-03-01T15:45:22;8.20;94.10
34434;DHT22;34290;48.562;13.384;2023-03-01T15:47:52;8.30;94.30
34434;DHT22;34290;48.562;13.384;2023-03-01T15:50:21;8.10;94.30
34434;DHT22;34290;48.562;13.384;2023-03-01T15:52:49;7.90;94.20
34434;DHT22;34290;48.562;13.384;2023-03-01T15:55:18;8.10;94.60
34434;DHT22;34290;48.562;13.384;2023-03-01T16:00:14;8.10;95.20
34434;DHT22;34290;48.562;13.384;2023-03-01T16:02:43;7.80;94.50
34434;DHT22;34290;48.562;13.384;2023-03-01T16:05:17;7.80;94.60
34434;DHT22;34290;48.562;13.384;2023-03-01T16:07:45;7.00;94.90
34434;DHT22;34290;48.562;13.384;2023-03-01T16:10:12;8.20;95.50
34434;DHT22;34290;48.562;13.384;2023-03-01T16:12:39;7.70;95.40
34434;DHT22;34290;48.562;13.384;2023-03-01T16:15:13;6.90;95.50
34434;DHT22;34290;48.562;13.384;2023-03-01T16:20:10;7.30;95.90
34434;DHT22;34290;48.562;13.384;2023-03-01T16:22:38;7.20;95.80
34434;DHT22;34290;48.562;13.384;2023-03-01T16:25:08;7.10;95.90
34434;DHT22;34290;48.562;13.384;2023-03-01T16:30:03;6.90;96.10
34434;DHT22;34290;48.562;13.384;2023-03-01T16:32:31;6.90;96.80
34434;DHT22;34290;48.562;13.384;2023-03-01T16:34:58;6.80;96.70
34434;DHT22;34290;48.562;13.384;2023-03-01T16:37:24;5.90;96.80
34434;DHT22;34290;48.562;13.384;2023-03-01T16:39:53;6.60;96.80
34434;DHT22;34290;48.562;13.384;2023-03-01T16:42:20;6.60;98.30
34434;DHT22;34290;48.562;13.384;2023-03-01T16:47:14;6.30;99.30
34434;DHT22;34290;48.562;13.384;2023-03-01T16:52:09;6.70;98.70
34434;DHT22;34290;48.562;13.384;2023-03-01T16:54:36;6.30;99.30
34434;DHT22;34290;48.562;13.384;2023-03-01T16:57:05;6.30;98.30
34434;DHT22;34290;48.562;13.384;2023-03-01T17:01:59;6.20;98.10
34434;DHT22;34290;48.562;13.384;2023-03-01T17:06:53;6.00;98.10
34434;DHT22;34290;48.562;13.384;2023-03-01T17:11:49;5.70;98.40
34434;DHT22;34290;48.562;13.384;2023-03-01T17:14:18;5.80;98.30
34434;DHT22;34290;48.562;13.384;2023-03-01T17:16:45;5.10;98.40